Time;durP1;ratioP1;P1;durP2;ratioP2;P2;SDS_P1;SDS_P2;PMS_P1;PMS_P2;Temp;Humidity;BMP_temperature;BMP_pressure;BME280_temperature;BME280_humidity;BME280_pressure;Samples;Min_cycle;Max_cycle;Signal;HPM_P1;HPM_P2
2021/04/13 00:01:16;;;;;;;0.93;0.93;;;2.10;99.90;;;;;;5045068;28;20240;-72
2021/04/13 00:03:45;;;;;;;0.93;0.93;;;2.10;99.90;;;;;;5032849;28;20202;-72
2021/04/13 00:06:36;;;;;;;0.55;0.55;;;2.10;99.90;;;;;;5042416;28;20219;-71
2021/04/13 00:09:11;;;;;;;0.85;0.85;;;2.20;99.90;;;;;;5053114;28;20169;-73
2021/04/13 00:11:38;;;;;;;0.55;0.55;;;2.20;99.90;;;;;;5042614;28;20589;-71
2021/04/13 00:14:07;;;;;;;1.83;1.73;;;2.20;99.90;;;;;;5036804;28;20204;-72
2021/04/13 00:16:35;;;;;;;0.95;0.95;;;2.20;99.90;;;;;;5049074;28;20201;-73
2021/04/13 00:19:01;;;;;;;0.50;0.50;;;2.20;99.90;;;;;;5047858;28;20261;-70
2021/04/13 00:21:32;;;;;;;0.95;0.93;;;2.20;99.90;;;;;;5047558;28;20213;-71
2021/04/13 00:24:03;;;;;;;0.85;0.85;;;2.20;99.90;;;;;;5056684;28;20203;-70
2021/04/13 00:26:32;;;;;;;0.70;0.70;;;2.20;99.90;;;;;;5044930;28;20259;-71
2021/04/13 00:29:08;;;;;;;0.50;0.50;;;2.20;99.90;;;;;;5056918;28;20220;-71
2021/04/13 00:31:43;;;;;;;0.73;0.73;;;2.20;99.90;;;;;;5045120;28;20174;-70
2021/04/13 00:34:23;;;;;;;1.20;0.80;;;2.20;99.90;;;;;;5036695;28;20599;-71
2021/04/13 00:36:51;;;;;;;0.30;0.30;;;2.10;99.90;;;;;;5049461;28;20193;-70
2021/04/13 00:39:28;;;;;;;0.45;0.45;;;2.10;99.90;;;;;;5056738;28;20200;-71
2021/04/13 00:42:03;;;;;;;1.73;1.63;;;2.00;99.90;;;;;;5048203;28;20556;-70
2021/04/13 00:44:34;;;;;;;1.95;0.90;;;2.00;99.90;;;;;;5056115;28;20196;-73
2021/04/13 00:47:04;;;;;;;1.23;1.13;;;2.00;99.90;;;;;;5042906;28;20216;-71
2021/04/13 00:49:34;;;;;;;0.60;0.57;;;1.90;99.90;;;;;;5036566;28;20169;-70
2021/04/13 00:52:22;;;;;;;1.05;1.05;;;1.90;99.90;;;;;;5049852;28;20174;-70
2021/04/13 00:54:55;;;;;;;0.50;0.50;;;1.90;99.90;;;;;;5056011;28;20169;-70
2021/04/13 00:57:28;;;;;;;1.25;1.15;;;1.90;99.90;;;;;;5039944;28;20210;-71
2021/04/13 00:59:56;;;;;;;0.75;0.75;;;1.80;99.90;;;;;;5036528;28;20170;-71
2021/04/13 01:02:31;;;;;;;1.45;1.45;;;1.80;99.90;;;;;;5051587;28;20178;-70
2021/04/13 01:05:01;;;;;;;1.25;1.25;;;1.80;99.90;;;;;;5055869;28;20165;-71
2021/04/13 01:07:32;;;;;;;2.28;0.93;;;1.70;99.90;;;;;;5040059;28;20244;-70
2021/04/13 01:10:10;;;;;;;0.90;0.90;;;1.70;99.90;;;;;;5036147;28;20173;-71
2021/04/13 01:12:42;;;;;;;0.98;0.98;;;1.60;99.90;;;;;;5038181;28;20223;-70
2021/04/13 01:15:11;;;;;;;1.02;0.98;;;1.50;99.90;;;;;;5035895;28;20177;-72
2021/04/13 01:17:39;;;;;;;4.03;1.02;;;1.50;99.90;;;;;;5037041;28;20182;-72
2021/04/13 01:20:35;;;;;;;1.27;1.27;;;1.50;99.90;;;;;;5044064;28;20648;-72
2021/04/13 01:25:36;;;;;;;1.58;1.52;;;1.40;99.90;;;;;;5042099;28;20174;-72
2021/04/13 01:28:19;;;;;;;3.90;2.35;;;1.50;99.90;;;;;;5034552;28;20178;-71
2021/04/13 01:30:52;;;;;;;1.25;1.20;;;1.50;99.90;;;;;;5050831;28;20173;-72
2021/04/13 01:33:33;;;;;;;1.05;1.05;;;1.40;99.90;;;;;;5055339;28;20231;-72
2021/04/13 01:36:00;;;;;;;1.05;1.05;;;1.40;99.90;;;;;;5051265;28;20622;-71
2021/04/13 01:38:34;;;;;;;0.45;0.45;;;1.30;99.90;;;;;;5055548;28;20250;-72
2021/04/13 01:43:40;;;;;;;1.45;1.25;;;1.30;99.90;;;;;;5035855;28;20189;-72
2021/04/13 01:46:07;;;;;;;1.88;1.23;;;1.30;99.90;;;;;;5051636;28;20216;-72
2021/04/13 01:48:34;;;;;;;0.73;0.68;;;1.30;99.90;;;;;;5055326;28;20170;-72
2021/04/13 01:51:05;;;;;;;1.10;1.10;;;1.30;99.90;;;;;;5037524;28;20182;-72
2021/04/13 01:53:39;;;;;;;0.77;0.77;;;1.30;99.90;;;;;;5035214;28;20190;-72
2021/04/13 01:56:09;;;;;;;0.40;0.40;;;1.20;99.90;;;;;;5050921;28;20621;-71
2021/04/13 01:58:44;;;;;;;0.30;0.30;;;1.30;99.90;;;;;;5054043;28;20208;-72
2021/04/13 02:01:14;;;;;;;0.52;0.52;;;1.30;99.90;;;;;;5035381;28;20180;-72
2021/04/13 02:03:51;;;;;;;0.50;0.50;;;1.20;99.90;;;;;;5035989;28;20198;-72
2021/04/13 02:06:41;;;;;;;2.10;2.00;;;1.20;99.90;;;;;;5042713;28;20198;-72
2021/04/13 02:09:16;;;;;;;1.25;0.85;;;1.20;99.90;;;;;;5038813;28;20500;-72
2021/04/13 02:11:43;;;;;;;1.48;1.38;;;1.20;99.90;;;;;;5055178;28;20179;-72
2021/04/13 02:14:17;;;;;;;0.80;0.80;;;1.20;99.90;;;;;;5049302;28;20174;-71
2021/04/13 02:17:08;;;;;;;0.35;0.35;;;1.10;99.90;;;;;;5034977;28;20680;-71
2021/04/13 02:19:34;;;;;;;0.75;0.75;;;1.10;99.90;;;;;;5034906;28;20189;-71
2021/04/13 02:22:21;;;;;;;1.02;1.02;;;1.00;99.90;;;;;;5034810;28;20686;-72
2021/04/13 02:24:49;;;;;;;0.70;0.70;;;1.00;99.90;;;;;;5043342;28;20311;-71
2021/04/13 02:27:20;;;;;;;0.77;0.77;;;1.00;99.90;;;;;;5054098;28;20192;-72
2021/04/13 02:29:54;;;;;;;0.80;0.80;;;1.00;99.90;;;;;;5043557;28;20177;-72
2021/04/13 02:32:27;;;;;;;1.10;1.10;;;0.90;99.90;;;;;;5054272;28;20272;-71
2021/04/13 02:34:58;;;;;;;0.60;0.60;;;0.90;99.90;;;;;;5042907;28;20245;-72
2021/04/13 02:37:37;;;;;;;2.58;1.95;;;0.90;99.90;;;;;;5034873;28;20185;-71
2021/04/13 02:40:18;;;;;;;1.30;1.30;;;0.90;99.90;;;;;;5044617;28;20170;-72
2021/04/13 02:42:46;;;;;;;1.13;1.02;;;0.80;99.90;;;;;;5048229;28;20263;-71
2021/04/13 02:45:22;;;;;;;0.40;0.40;;;0.80;99.90;;;;;;5044581;28;20171;-72
2021/04/13 02:47:52;;;;;;;1.67;0.98;;;0.80;99.90;;;;;;5054212;28;20176;-72
2021/04/13 02:50:20;;;;;;;1.27;1.17;;;0.80;99.90;;;;;;5042474;28;20170;-72
2021/04/13 02:52:50;;;;;;;0.45;0.45;;;0.90;99.90;;;;;;5053279;28;20260;-71
2021/04/13 02:55:37;;;;;;;1.45;1.35;;;0.80;99.90;;;;;;5042485;28;20174;-72
2021/04/13 02:58:06;;;;;;;2.25;2.15;;;0.70;99.90;;;;;;5032825;28;20190;-72
2021/04/13 03:00:37;;;;;;;0.80;0.80;;;0.70;99.90;;;;;;5046385;28;20185;-71
2021/04/13 03:03:06;;;;;;;1.35;1.35;;;0.70;99.90;;;;;;5054033;28;20272;-72
2021/04/13 03:05:33;;;;;;;1.00;0.82;;;0.60;99.90;;;;;;5048549;28;20239;-72
2021/04/13 03:08:06;;;;;;;0.68;0.68;;;0.50;99.90;;;;;;5034139;28;20173;-72
2021/04/13 03:10:37;;;;;;;0.82;0.82;;;0.60;99.90;;;;;;5043510;28;20173;-72
2021/04/13 03:13:09;;;;;;;0.40;0.40;;;0.50;99.90;;;;;;5033955;28;20216;-72
2021/04/13 03:15:38;;;;;;;0.80;0.80;;;0.50;99.90;;;;;;5044656;28;20200;-72
2021/04/13 03:18:12;;;;;;;0.70;0.70;;;0.50;99.90;;;;;;5052540;28;20166;-72
2021/04/13 03:20:43;;;;;;;1.13;0.93;;;0.50;99.90;;;;;;5039555;28;20260;-71
2021/04/13 03:23:10;;;;;;;1.50;1.40;;;0.50;99.90;;;;;;5044904;28;20196;-72
2021/04/13 03:25:55;;;;;;;0.50;0.50;;;0.50;99.90;;;;;;5053180;28;20186;-71
2021/04/13 03:28:26;;;;;;;0.63;0.63;;;0.50;99.90;;;;;;5040194;28;20199;-71
2021/04/13 03:30:53;;;;;;;1.50;1.40;;;0.50;99.90;;;;;;5033782;28;20175;-71
2021/04/13 03:33:31;;;;;;;1.17;1.08;;;0.50;99.90;;;;;;5045420;28;20181;-71
2021/04/13 03:36:07;;;;;;;0.80;0.80;;;0.50;99.90;;;;;;5053027;28;20238;-71
2021/04/13 03:38:34;;;;;;;0.93;0.93;;;0.60;99.90;;;;;;5038835;28;20203;-71
2021/04/13 03:41:00;;;;;;;1.48;1.45;;;0.60;99.90;;;;;;5033373;28;20185;-72
2021/04/13 03:43:28;;;;;;;0.82;0.82;;;0.60;99.90;;;;;;5045759;28;20209;-71
2021/04/13 03:45:57;;;;;;;1.00;1.00;;;0.70;99.90;;;;;;5041312;28;20190;-71
2021/04/13 03:48:26;;;;;;;0.63;0.63;;;0.70;99.90;;;;;;5044794;28;20193;-71
2021/04/13 03:51:15;;;;;;;0.43;0.43;;;0.60;99.90;;;;;;5053328;28;20214;-72
2021/04/13 03:53:46;;;;;;;0.90;0.90;;;0.60;99.90;;;;;;5038819;28;20182;-72
2021/04/13 03:56:15;;;;;;;0.93;0.93;;;0.70;99.90;;;;;;5033424;28;20190;-71
2021/04/13 03:58:52;;;;;;;2.03;1.95;;;0.50;99.90;;;;;;5034071;28;20204;-71
2021/04/13 04:01:23;;;;;;;0.88;0.88;;;0.50;99.90;;;;;;5047236;28;20512;-72
2021/04/13 04:04:09;;;;;;;0.80;0.80;;;0.50;99.90;;;;;;5035584;28;20221;-72
2021/04/13 04:06:41;;;;;;;2.45;1.17;;;0.50;99.90;;;;;;5032748;28;20589;-72
2021/04/13 04:09:15;;;;;;;0.95;0.95;;;0.50;99.90;;;;;;5041610;28;20166;-72
2021/04/13 04:11:41;;;;;;;0.70;0.70;;;0.50;99.90;;;;;;5033462;28;20162;-72
2021/04/13 04:14:14;;;;;;;0.50;0.50;;;0.40;99.90;;;;;;5050889;28;20188;-72
2021/04/13 04:16:40;;;;;;;0.77;0.77;;;0.50;99.90;;;;;;5051620;28;20193;-72
2021/04/13 04:19:16;;;;;;;1.03;1.03;;;0.40;99.90;;;;;;5034774;28;20186;-72
2021/04/13 04:21:46;;;;;;;1.48;1.48;;;0.40;99.90;;;;;;5033068;28;20193;-72
2021/04/13 04:24:34;;;;;;;0.85;0.85;;;0.40;99.90;;;;;;5037128;28;20259;-71
2021/04/13 04:27:15;;;;;;;0.63;0.63;;;0.40;99.90;;;;;;5031672;28;20607;-72
2021/04/13 04:29:47;;;;;;;0.70;0.70;;;0.40;99.90;;;;;;5052982;28;20177;-72
2021/04/13 04:32:35;;;;;;;0.65;0.65;;;0.30;99.90;;;;;;5050441;28;20650;-71
2021/04/13 04:35:04;;;;;;;0.40;0.40;;;0.30;99.90;;;;;;5032598;28;20690;-71
2021/04/13 04:37:34;;;;;;;0.50;0.50;;;0.30;99.90;;;;;;5032724;28;20285;-71
2021/04/13 04:40:17;;;;;;;0.40;0.40;;;0.30;99.90;;;;;;5032843;28;20253;-72
2021/04/13 04:43:00;;;;;;;0.70;0.70;;;0.20;99.90;;;;;;5036352;28;20694;-71
2021/04/13 04:45:46;;;;;;;1.40;1.30;;;0.10;99.90;;;;;;5052260;28;20170;-72
2021/04/13 04:48:18;;;;;;;0.73;0.73;;;0.10;99.90;;;;;;5040853;28;20185;-71
2021/04/13 04:50:46;;;;;;;1.55;1.55;;;0.10;99.90;;;;;;5052749;28;20219;-72
2021/04/13 04:53:12;;;;;;;0.50;0.50;;;0.10;99.90;;;;;;5044898;28;20182;-72
2021/04/13 04:55:38;;;;;;;1.30;1.30;;;0.10;99.90;;;;;;5032348;28;20611;-71
2021/04/13 04:58:03;;;;;;;5.00;1.70;;;0.10;99.90;;;;;;5037143;28;20214;-71
2021/04/13 05:00:29;;;;;;;0.53;0.53;;;0.20;99.90;;;;;;5036243;28;20208;-71
2021/04/13 05:02:55;;;;;;;1.03;1.03;;;0.20;99.90;;;;;;5048113;28;20277;-72
2021/04/13 05:05:21;;;;;;;1.50;1.40;;;0.30;99.90;;;;;;5036000;28;20167;-72
2021/04/13 05:07:49;;;;;;;1.17;1.17;;;0.30;99.90;;;;;;5042014;28;20166;-73
2021/04/13 05:10:15;;;;;;;1.63;1.52;;;0.40;99.90;;;;;;5056158;28;20188;-72
2021/04/13 05:12:41;;;;;;;0.83;0.83;;;0.40;99.90;;;;;;5050965;28;20237;-72
2021/04/13 05:15:07;;;;;;;3.33;1.90;;;0.40;99.90;;;;;;5035661;28;20812;-71
2021/04/13 05:17:33;;;;;;;0.98;0.98;;;0.50;99.90;;;;;;5050573;28;20189;-72
2021/04/13 05:19:58;;;;;;;1.00;1.00;;;0.70;99.90;;;;;;5035875;28;20177;-70
2021/04/13 05:22:25;;;;;;;2.63;2.43;;;0.80;99.90;;;;;;5037050;28;20169;-71
2021/04/13 05:24:50;;;;;;;4.10;2.25;;;0.90;99.90;;;;;;5055121;28;20264;-72
2021/04/13 05:27:16;;;;;;;1.03;1.03;;;1.10;99.90;;;;;;5054902;28;20676;-70
2021/04/13 05:29:42;;;;;;;1.67;1.03;;;1.30;99.90;;;;;;5034506;28;20185;-72
2021/04/13 05:32:07;;;;;;;1.53;1.50;;;1.60;99.90;;;;;;5035861;28;20170;-73
2021/04/13 05:34:33;;;;;;;0.97;0.97;;;1.90;99.90;;;;;;5053852;28;20177;-72
2021/04/13 05:36:58;;;;;;;1.67;0.90;;;2.20;99.90;;;;;;5055593;28;20541;-71
2021/04/13 05:39:24;;;;;;;0.93;0.93;;;2.40;99.90;;;;;;5045056;28;20173;-71
2021/04/13 05:41:56;;;;;;;2.00;1.90;;;2.70;99.90;;;;;;5055148;28;20528;-71
2021/04/13 05:44:22;;;;;;;2.13;1.38;;;2.90;99.90;;;;;;5038590;28;20198;-72
2021/04/13 05:46:49;;;;;;;3.58;1.95;;;3.00;99.90;;;;;;5035434;28;20734;-72
2021/04/13 05:49:15;;;;;;;0.90;0.90;;;3.10;99.90;;;;;;5043498;28;20191;-70
2021/04/13 05:51:41;;;;;;;1.30;1.20;;;3.20;99.90;;;;;;5035911;28;20185;-72
2021/04/13 05:54:06;;;;;;;2.83;2.63;;;3.40;99.90;;;;;;5035106;28;20541;-72
2021/04/13 05:56:41;;;;;;;1.80;1.70;;;3.50;99.90;;;;;;5041973;28;20452;-74
2021/04/13 05:59:09;;;;;;;2.70;2.38;;;3.80;99.90;;;;;;5035360;28;20185;-74
2021/04/13 06:01:36;;;;;;;2.40;2.30;;;4.20;99.90;;;;;;5039175;28;20173;-72
2021/04/13 06:04:03;;;;;;;1.20;1.20;;;4.40;99.90;;;;;;5054487;28;20675;-72
2021/04/13 06:06:28;;;;;;;2.22;2.03;;;4.50;99.90;;;;;;5051005;28;20692;-74
2021/04/13 06:08:54;;;;;;;1.80;1.70;;;4.80;99.90;;;;;;5040668;28;20252;-72
2021/04/13 06:11:29;;;;;;;2.40;2.20;;;5.10;99.90;;;;;;5052717;28;20170;-71
2021/04/13 06:13:59;;;;;;;1.70;1.60;;;5.30;99.90;;;;;;5034768;28;20169;-74
2021/04/13 06:16:31;;;;;;;2.15;2.05;;;5.40;99.90;;;;;;5036334;28;20194;-75
2021/04/13 06:18:57;;;;;;;1.67;1.55;;;5.40;99.90;;;;;;5055018;28;20170;-74
2021/04/13 06:21:22;;;;;;;4.90;1.80;;;5.40;99.90;;;;;;5053410;28;20182;-74
2021/04/13 06:23:48;;;;;;;1.17;1.07;;;5.10;99.90;;;;;;5041132;28;20193;-76
2021/04/13 06:26:13;;;;;;;6.93;2.00;;;5.00;99.90;;;;;;5054507;28;20189;-75
2021/04/13 06:28:39;;;;;;;2.00;2.00;;;5.00;99.90;;;;;;5034591;28;20688;-77
2021/04/13 06:31:05;;;;;;;2.33;2.07;;;5.10;99.90;;;;;;5034464;28;20253;-75
2021/04/13 06:33:32;;;;;;;2.17;1.97;;;5.50;99.90;;;;;;5052346;28;20258;-71
2021/04/13 06:35:59;;;;;;;2.85;2.67;;;6.00;99.90;;;;;;5053854;28;20193;-73
2021/04/13 06:38:26;;;;;;;4.18;2.53;;;6.50;99.90;;;;;;5036987;28;20184;-71
2021/04/13 06:41:25;;;;;;;3.05;2.85;;;6.80;99.90;;;;;;5034221;28;20660;-72
2021/04/13 06:44:25;;;;;;;1.98;1.77;;;6.90;99.90;;;;;;5033802;28;20255;-73
2021/04/13 06:47:23;;;;;;;2.88;2.25;;;6.90;99.90;;;;;;5040238;28;20270;-71
2021/04/13 06:49:58;;;;;;;2.22;2.03;;;6.80;99.90;;;;;;5054147;28;20685;-72
2021/04/13 06:52:41;;;;;;;2.15;2.00;;;6.80;99.90;;;;;;5051147;28;20176;-72
2021/04/13 06:55:13;;;;;;;3.58;2.30;;;7.10;99.90;;;;;;5033436;28;20531;-69
2021/04/13 06:58:13;;;;;;;3.17;2.40;;;7.30;99.90;;;;;;5045272;28;20515;-70
2021/04/13 07:01:02;;;;;;;5.40;3.13;;;7.60;99.90;;;;;;5053829;28;20173;-71
2021/04/13 07:03:32;;;;;;;3.25;2.90;;;8.10;99.90;;;;;;5036176;28;20259;-70
2021/04/13 07:06:20;;;;;;;4.45;3.33;;;8.50;99.90;;;;;;5039986;28;20204;-70
2021/04/13 07:08:54;;;;;;;5.10;3.90;;;8.50;98.70;;;;;;5034078;28;20262;-70
2021/04/13 07:11:30;;;;;;;4.70;3.08;;;8.50;98.30;;;;;;5060216;28;20692;-69
2021/04/13 07:14:20;;;;;;;5.88;4.15;;;8.60;98.40;;;;;;5073421;28;20176;-69
2021/04/13 07:17:04;;;;;;;6.72;3.65;;;8.60;98.50;;;;;;5053073;28;20280;-70
2021/04/13 07:19:40;;;;;;;3.55;2.70;;;8.60;98.20;;;;;;5046844;28;20177;-71
2021/04/13 07:22:25;;;;;;;7.55;4.00;;;8.50;97.30;;;;;;5040794;28;20189;-71
2021/04/13 07:24:52;;;;;;;8.10;3.50;;;8.90;98.10;;;;;;5040196;28;20197;-74
2021/04/13 07:27:29;;;;;;;6.37;3.50;;;9.40;96.80;;;;;;5041150;28;20596;-74
2021/04/13 07:29:59;;;;;;;6.87;3.97;;;9.50;95.60;;;;;;5046505;28;20809;-68
2021/04/13 07:32:25;;;;;;;8.50;3.70;;;9.40;95.40;;;;;;5051926;28;20810;-69
2021/04/13 07:34:57;;;;;;;7.60;3.50;;;9.70;95.70;;;;;;5033205;28;20415;-69
2021/04/13 07:37:35;;;;;;;9.80;3.07;;;10.20;95.20;;;;;;5033259;28;20426;-68
2021/04/13 07:40:06;;;;;;;6.40;3.30;;;10.60;94.10;;;;;;5041469;28;20422;-69
2021/04/13 07:42:36;;;;;;;5.87;3.00;;;10.90;92.40;;;;;;5052966;28;20810;-67
2021/04/13 07:45:27;;;;;;;8.13;4.60;;;11.30;91.50;;;;;;5033907;28;20451;-68
2021/04/13 07:48:20;;;;;;;7.87;3.90;;;11.30;90.30;;;;;;5041143;28;20414;-66
2021/04/13 07:51:07;;;;;;;7.63;4.00;;;11.70;89.90;;;;;;5049944;28;20420;-68
2021/04/13 07:53:51;;;;;;;9.97;4.40;;;12.00;87.80;;;;;;5053000;28;20499;-66
2021/04/13 07:56:45;;;;;;;7.70;3.90;;;12.60;87.60;;;;;;5038728;28;20448;-66
2021/04/13 07:59:27;;;;;;;7.93;3.80;;;12.90;84.10;;;;;;5033427;28;20558;-70
2021/04/13 08:01:53;;;;;;;8.10;4.90;;;13.40;82.40;;;;;;5051148;28;20443;-75
2021/04/13 08:04:26;;;;;;;7.37;4.30;;;14.10;83.50;;;;;;5052435;28;20455;-67
2021/04/13 08:07:11;;;;;;;7.80;4.63;;;14.80;81.70;;;;;;5034586;28;20448;-71
2021/04/13 08:09:43;;;;;;;6.13;3.80;;;15.50;77.80;;;;;;5045481;28;20418;-70
2021/04/13 08:12:08;;;;;;;7.20;3.80;;;15.70;75.90;;;;;;5045622;28;20407;-70
2021/04/13 08:14:38;;;;;;;6.40;4.10;;;16.10;73.00;;;;;;5032547;28;20420;-69
2021/04/13 08:17:23;;;;;;;8.50;4.67;;;16.30;71.90;;;;;;5037859;28;20229;-70
2021/04/13 08:20:04;;;;;;;7.20;3.70;;;16.30;71.90;;;;;;5038926;28;20448;-69
2021/04/13 08:22:52;;;;;;;7.87;4.20;;;16.40;72.30;;;;;;5034958;28;20413;-70
2021/04/13 08:25:41;;;;;;;6.20;3.70;;;16.50;72.20;;;;;;5042510;28;20922;-69
2021/04/13 08:28:38;;;;;;;6.00;3.40;;;16.50;67.20;;;;;;5038095;28;21016;-69
2021/04/13 08:34:25;;;;;;;6.23;3.80;;;16.60;66.40;;;;;;5047670;28;20447;-70
2021/04/13 08:37:28;;;;;;;6.20;3.70;;;17.50;63.10;;;;;;5056357;28;20430;-68
2021/04/13 08:40:12;;;;;;;6.37;3.80;;;18.30;65.30;;;;;;5046720;28;20428;-69
2021/04/13 08:43:20;;;;;;;5.53;3.20;;;18.10;60.60;;;;;;5051540;28;20776;-70
2021/04/13 08:45:46;;;;;;;6.23;3.57;;;18.70;59.10;;;;;;5050380;28;20440;-70
2021/04/13 08:48:24;;;;;;;5.90;3.97;;;19.00;59.20;;;;;;5045512;28;20467;-70
2021/04/13 08:51:10;;;;;;;5.20;3.30;;;18.80;58.30;;;;;;5042533;28;20416;-70
2021/04/13 08:53:42;;;;;;;5.40;3.50;;;17.60;58.80;;;;;;5034847;28;20943;-69
2021/04/13 08:56:29;;;;;;;7.20;4.20;;;16.40;61.60;;;;;;5041558;28;20423;-69
2021/04/13 08:59:06;;;;;;;6.10;3.67;;;16.00;61.70;;;;;;5050600;28;20448;-69
2021/04/13 09:01:39;;;;;;;6.50;3.67;;;15.60;61.30;;;;;;5047173;28;20422;-68
2021/04/13 09:04:27;;;;;;;9.20;4.43;;;14.60;64.20;;;;;;5035564;28;20590;-70
2021/04/13 09:06:56;;;;;;;7.50;4.53;;;13.50;65.00;;;;;;5037134;28;20441;-69
2021/04/13 09:09:45;;;;;;;6.30;3.90;;;13.50;69.10;;;;;;5041864;28;20419;-69
2021/04/13 09:12:34;;;;;;;6.80;3.83;;;13.40;66.40;;;;;;5045682;28;20473;-70
2021/04/13 09:15:06;;;;;;;6.80;4.40;;;13.70;67.40;;;;;;5055502;28;20952;-69
2021/04/13 09:17:57;;;;;;;4.90;3.10;;;14.50;64.40;;;;;;5045192;28;20436;-69
2021/04/13 09:20:24;;;;;;;6.70;3.70;;;15.40;63.80;;;;;;5037780;28;20435;-69
2021/04/13 09:22:49;;;;;;;6.40;3.57;;;15.90;59.90;;;;;;5055371;28;20813;-69
2021/04/13 09:25:30;;;;;;;5.60;2.90;;;16.60;58.20;;;;;;5049092;28;20467;-70
2021/04/13 09:28:04;;;;;;;6.13;3.10;;;17.30;58.40;;;;;;5050982;28;20216;-68
2021/04/13 09:31:05;;;;;;;5.30;3.50;;;17.80;58.50;;;;;;5054297;28;20421;-68
2021/04/13 09:33:43;;;;;;;5.30;3.40;;;18.10;58.10;;;;;;5035750;28;20429;-69
2021/04/13 09:36:11;;;;;;;5.10;3.00;;;18.00;57.30;;;;;;5036273;28;20405;-69
2021/04/13 09:38:56;;;;;;;5.13;2.97;;;18.10;57.90;;;;;;5045493;28;20885;-69
2021/04/13 09:41:27;;;;;;;5.53;2.90;;;17.00;56.30;;;;;;5038097;28;20490;-71
2021/04/13 09:43:59;;;;;;;5.90;3.33;;;15.90;57.10;;;;;;5054490;28;20452;-70
2021/04/13 09:46:34;;;;;;;7.33;3.37;;;14.50;58.50;;;;;;5039996;28;20427;-70
2021/04/13 09:49:17;;;;;;;7.70;3.53;;;13.30;59.10;;;;;;5044812;28;20425;-71
2021/04/13 09:52:20;;;;;;;5.40;3.10;;;13.70;60.50;;;;;;5055205;28;20490;-68
2021/04/13 09:55:16;;;;;;;7.07;4.10;;;15.00;59.80;;;;;;5038494;28;20407;-68
2021/04/13 09:58:06;;;;;;;5.40;3.17;;;16.80;58.10;;;;;;5038517;28;20887;-71
2021/04/13 10:00:40;;;;;;;5.33;2.83;;;17.00;55.30;;;;;;5046437;28;20447;-70
2021/04/13 10:03:41;;;;;;;6.20;3.07;;;16.20;56.20;;;;;;5035131;28;20995;-69
2021/04/13 10:06:12;;;;;;;5.47;2.70;;;15.20;56.20;;;;;;5034088;28;20410;-71
2021/04/13 10:08:46;;;;;;;4.80;2.33;;;14.20;56.80;;;;;;5043358;28;20426;-68
2021/04/13 10:11:45;;;;;;;7.40;3.30;;;13.30;58.10;;;;;;5053288;28;20439;-68
2021/04/13 10:14:29;;;;;;;4.07;2.33;;;12.10;57.50;;;;;;5044307;28;20965;-67
2021/04/13 10:17:26;;;;;;;4.60;2.27;;;11.40;58.00;;;;;;5056834;28;20456;-68
2021/04/13 10:20:16;;;;;;;4.73;2.00;;;10.90;60.00;;;;;;5047767;28;21002;-66
2021/04/13 10:23:09;;;;;;;4.03;1.80;;;11.30;61.10;;;;;;5042451;28;20455;-71
2021/04/13 10:26:04;;;;;;;4.83;2.77;;;12.60;59.20;;;;;;5034319;28;20421;-72
2021/04/13 10:28:56;;;;;;;5.07;2.20;;;13.10;57.40;;;;;;5033451;28;20401;-71
2021/04/13 10:31:58;;;;;;;4.93;2.53;;;13.00;56.80;;;;;;5045501;28;20507;-74
2021/04/13 10:34:54;;;;;;;4.70;1.90;;;12.50;57.00;;;;;;5037656;28;20932;-70
2021/04/13 10:38:00;;;;;;;4.30;2.30;;;12.70;57.80;;;;;;5054441;28;20499;-71
2021/04/13 10:41:04;;;;;;;6.20;2.90;;;13.30;55.90;;;;;;5052692;28;20420;-69
2021/04/13 10:44:07;;;;;;;6.43;3.00;;;13.30;56.00;;;;;;5037029;28;20457;-71
2021/04/13 10:46:52;;;;;;;7.07;2.73;;;12.70;57.20;;;;;;5040211;28;20522;-70
2021/04/13 10:49:39;;;;;;;6.00;2.70;;;12.10;57.50;;;;;;5034319;28;20419;-71
2021/04/13 10:52:27;;;;;;;5.17;2.17;;;11.30;56.20;;;;;;5044385;28;20449;-71
2021/04/13 10:55:30;;;;;;;4.57;2.37;;;10.90;57.30;;;;;;5052842;28;20801;-71
2021/04/13 10:58:11;;;;;;;5.33;2.17;;;11.60;55.70;;;;;;5049602;28;20458;-69
2021/04/13 11:00:58;;;;;;;4.37;1.80;;;12.30;54.60;;;;;;5052247;28;20426;-69
2021/04/13 11:03:44;;;;;;;5.67;2.40;;;13.20;54.90;;;;;;5053592;28;20459;-69
2021/04/13 11:06:37;;;;;;;5.53;2.07;;;14.00;52.20;;;;;;5044261;28;20522;-69
2021/04/13 11:09:23;;;;;;;5.33;2.50;;;14.40;51.30;;;;;;5053727;28;20496;-67
2021/04/13 11:12:13;;;;;;;4.73;2.60;;;14.70;54.90;;;;;;5037471;28;20416;-69
2021/04/13 11:14:41;;;;;;;4.50;2.40;;;13.80;54.90;;;;;;5036736;28;20424;-68
2021/04/13 11:17:55;;;;;;;5.17;2.43;;;12.80;57.10;;;;;;5033658;28;20455;-70
2021/04/13 11:20:35;;;;;;;4.90;2.63;;;12.20;59.70;;;;;;5038118;28;20409;-71
2021/04/13 11:23:32;;;;;;;6.70;3.10;;;11.90;61.80;;;;;;5051843;28;20452;-68
2021/04/13 11:26:16;;;;;;;4.03;2.03;;;11.70;57.90;;;;;;5051135;28;20437;-72
2021/04/13 11:29:18;;;;;;;4.70;2.50;;;11.80;59.40;;;;;;5053373;28;20405;-72
2021/04/13 11:32:28;;;;;;;6.10;2.43;;;12.00;60.80;;;;;;5044503;28;20442;-70
2021/04/13 11:35:13;;;;;;;6.13;2.00;;;12.10;57.70;;;;;;5032060;28;20473;-70
2021/04/13 11:38:02;;;;;;;5.10;2.57;;;11.70;57.20;;;;;;5046916;28;20432;-73
2021/04/13 11:40:51;;;;;;;3.70;1.63;;;11.50;58.40;;;;;;5053679;28;20404;-75
2021/04/13 11:43:23;;;;;;;4.85;1.92;;;11.30;56.00;;;;;;5051553;28;20965;-73
2021/04/13 11:46:04;;;;;;;5.40;2.17;;;11.10;57.60;;;;;;5050832;28;20193;-76
2021/04/13 11:48:51;;;;;;;10.70;3.85;;;10.90;59.20;;;;;;5052913;28;20166;-72
2021/04/13 11:51:30;;;;;;;5.70;2.28;;;11.00;58.60;;;;;;5040151;28;20174;-70
2021/04/13 11:54:17;;;;;;;5.65;2.65;;;10.90;63.60;;;;;;5034267;28;20610;-68
2021/04/13 11:56:43;;;;;;;5.13;2.40;;;10.70;60.90;;;;;;5050738;28;20252;-71
2021/04/13 11:59:17;;;;;;;4.73;2.70;;;10.40;61.30;;;;;;5054824;28;20192;-71
2021/04/13 12:02:20;;;;;;;3.60;1.30;;;10.20;60.00;;;;;;5072772;28;20260;-70
2021/04/13 12:04:50;;;;;;;4.50;1.30;;;9.80;64.00;;;;;;5054081;28;20197;-72
2021/04/13 12:07:43;;;;;;;4.72;2.13;;;9.50;63.20;;;;;;5058949;28;20194;-69
2021/04/13 12:10:12;;;;;;;4.38;1.88;;;9.30;61.70;;;;;;5059424;28;20172;-70
2021/04/13 12:12:38;;;;;;;4.57;1.85;;;9.10;62.60;;;;;;5059800;28;20352;-68
2021/04/13 12:15:06;;;;;;;4.60;2.23;;;8.90;65.00;;;;;;5062017;28;20176;-74
2021/04/13 12:17:46;;;;;;;5.85;2.45;;;8.70;65.00;;;;;;5059883;28;20195;-71
2021/04/13 12:20:30;;;;;;;6.15;2.45;;;8.60;65.40;;;;;;5059625;28;20295;-76
2021/04/13 12:23:05;;;;;;;3.75;1.05;;;8.70;67.90;;;;;;5059771;28;20172;-70
2021/04/13 12:25:36;;;;;;;4.15;2.25;;;8.80;67.80;;;;;;5058999;28;20697;-75
2021/04/13 12:28:07;;;;;;;3.92;1.60;;;8.90;67.30;;;;;;5059337;28;20170;-71
2021/04/13 12:30:35;;;;;;;4.70;1.33;;;9.00;66.70;;;;;;5059316;28;20248;-69
2021/04/13 12:33:03;;;;;;;3.78;1.55;;;9.00;62.90;;;;;;5059163;28;20169;-72
2021/04/13 12:35:48;;;;;;;3.65;1.85;;;9.20;65.50;;;;;;5058918;28;20173;-68
2021/04/13 12:38:41;;;;;;;3.75;1.67;;;9.10;64.10;;;;;;5059370;28;20251;-68
2021/04/13 12:41:28;;;;;;;9.25;2.00;;;9.30;64.30;;;;;;5059288;28;20173;-72
2021/04/13 12:44:09;;;;;;;3.55;1.27;;;9.40;63.40;;;;;;5058853;28;20195;-69
2021/04/13 12:46:35;;;;;;;3.70;1.60;;;9.50;62.80;;;;;;5059232;28;20186;-68
2021/04/13 12:49:13;;;;;;;3.83;2.27;;;9.50;62.10;;;;;;5057616;28;20181;-68
2021/04/13 12:52:01;;;;;;;3.35;1.33;;;9.60;64.60;;;;;;5061112;28;20642;-69
2021/04/13 12:54:36;;;;;;;3.28;1.48;;;9.80;63.10;;;;;;5078848;28;20169;-68
2021/04/13 12:57:08;;;;;;;3.15;1.35;;;9.90;64.80;;;;;;5078915;28;20213;-68
2021/04/13 12:59:35;;;;;;;4.40;1.50;;;10.00;59.00;;;;;;5042927;28;20557;-68
2021/04/13 13:02:04;;;;;;;6.80;1.80;;;10.20;59.10;;;;;;5039094;28;20640;-68
2021/04/13 13:04:39;;;;;;;3.97;1.55;;;10.30;60.30;;;;;;5038676;28;20198;-67
2021/04/13 13:07:19;;;;;;;6.18;2.08;;;10.50;58.50;;;;;;5038962;28;20209;-65
2021/04/13 13:09:45;;;;;;;14.43;2.35;;;10.70;57.80;;;;;;5045500;28;20559;-67
2021/04/13 13:12:28;;;;;;;3.53;1.27;;;10.80;57.30;;;;;;5072368;28;20176;-67
2021/04/13 13:15:15;;;;;;;5.93;1.52;;;10.90;58.60;;;;;;5050126;28;20181;-66
2021/04/13 13:17:51;;;;;;;3.20;1.40;;;10.80;56.90;;;;;;5036051;28;20177;-66
2021/04/13 13:20:32;;;;;;;5.68;2.15;;;10.50;56.90;;;;;;5035835;28;20212;-65
2021/04/13 13:22:58;;;;;;;3.28;0.95;;;10.10;58.50;;;;;;5036054;28;20274;-66
2021/04/13 13:25:35;;;;;;;3.00;1.08;;;9.80;57.80;;;;;;5036324;28;20216;-67
2021/04/13 13:28:27;;;;;;;5.50;1.23;;;9.40;56.70;;;;;;5034621;28;20189;-67
2021/04/13 13:30:53;;;;;;;3.40;1.52;;;9.30;57.30;;;;;;5035800;28;20174;-65
2021/04/13 13:33:20;;;;;;;3.70;1.17;;;9.10;57.00;;;;;;5035728;28;20196;-67
2021/04/13 13:35:47;;;;;;;4.15;1.02;;;9.10;57.80;;;;;;5035361;28;20198;-67
2021/04/13 13:38:20;;;;;;;3.17;0.90;;;9.20;59.00;;;;;;5035870;28;20174;-66
2021/04/13 13:40:47;;;;;;;3.42;0.90;;;9.40;57.50;;;;;;5044440;28;20505;-66
2021/04/13 13:43:23;;;;;;;8.82;1.27;;;9.60;56.80;;;;;;5055141;28;20220;-68
2021/04/13 13:45:49;;;;;;;3.30;1.40;;;9.80;56.70;;;;;;5054950;28;20181;-67
2021/04/13 13:48:21;;;;;;;2.70;0.60;;;9.90;57.50;;;;;;5054602;28;20712;-67
2021/04/13 13:51:01;;;;;;;6.93;1.30;;;10.10;55.90;;;;;;5053640;28;20485;-68